Terminal Aerodrome Forecast
Issued by NWS Lake Charles, LA

Current Version | Previous Version | Text Only | Print | Product List | Glossary On
Versions: 1 2 3 4 5 6 7 8 9 10 11 12 13 14
000
FTUS44 KLCH 190600 AAA
TAFAEX
TAF AMD
KAEX 190627Z 1906/2006 05005KT 3SM BR VCSH OVC003
     FM191000 03006KT 4SM -RA BR VCTS OVC004CB
     FM191800 03007KT 5SM -RA BR OVC007
     FM200100 02008KT 2SM BR OVC004=

USA.gov is the U.S. government's official web portal to all federal, state and local government web resources and services.